Time;durP1;ratioP1;P1;durP2;ratioP2;P2;SDS_P1;SDS_P2;PMS_P1;PMS_P2;Temp;Humidity;BMP_temperature;BMP_pressure;BME280_temperature;BME280_humidity;BME280_pressure;Samples;Min_cycle;Max_cycle;Signal;HPM_P1;HPM_P2
2020/12/05 00:00:51;;;;;;;15.93;9.45;;;23.10;33.20;;;;;;6253907;27;80432;-61
2020/12/05 00:03:51;;;;;;;15.70;9.50;;;23.10;33.20;;;;;;6276765;27;80915;-62
2020/12/05 00:06:52;;;;;;;14.88;8.10;;;23.10;32.90;;;;;;6266991;27;81378;-63
2020/12/05 00:09:53;;;;;;;12.50;7.78;;;23.00;32.90;;;;;;6273547;27;80933;-63
2020/12/05 00:12:53;;;;;;;13.57;7.88;;;23.10;33.20;;;;;;6269435;27;80695;-63
2020/12/05 00:15:54;;;;;;;14.27;8.30;;;23.00;33.00;;;;;;6266043;27;80465;-62
2020/12/05 00:18:54;;;;;;;14.80;7.60;;;23.00;32.90;;;;;;6268314;27;82963;-62
2020/12/05 00:21:55;;;;;;;11.45;7.00;;;23.10;32.90;;;;;;6269057;27;80652;-62
2020/12/05 00:24:56;;;;;;;14.20;8.45;;;23.00;33.30;;;;;;6270647;27;81469;-62
2020/12/05 00:27:56;;;;;;;12.10;7.45;;;23.10;33.20;;;;;;6272931;27;83507;-62
2020/12/05 00:30:57;;;;;;;13.40;7.88;;;23.00;33.20;;;;;;6268856;27;80737;-63
2020/12/05 00:33:57;;;;;;;13.93;7.45;;;23.00;33.10;;;;;;6263963;27;82577;-62
2020/12/05 00:36:58;;;;;;;14.13;8.10;;;23.00;33.00;;;;;;6272803;27;80443;-62
2020/12/05 00:39:58;;;;;;;13.90;8.02;;;23.00;33.10;;;;;;6265175;27;80638;-62
2020/12/05 00:42:59;;;;;;;14.13;7.40;;;23.00;33.20;;;;;;6263628;27;80672;-62
2020/12/05 00:45:59;;;;;;;12.50;7.38;;;23.00;33.10;;;;;;6275338;27;80262;-62
2020/12/05 00:49:00;;;;;;;11.38;7.15;;;23.00;33.30;;;;;;6272412;27;80794;-62
2020/12/05 00:52:01;;;;;;;11.13;7.40;;;23.00;33.20;;;;;;6273077;27;81764;-62
2020/12/05 00:55:01;;;;;;;10.88;6.28;;;23.10;33.20;;;;;;6272162;27;80982;-63
2020/12/05 00:58:02;;;;;;;13.15;7.55;;;23.00;33.10;;;;;;6271797;27;81343;-62
2020/12/05 01:01:02;;;;;;;12.18;7.65;;;23.00;33.20;;;;;;6266286;27;83216;-63
2020/12/05 01:04:03;;;;;;;11.55;7.72;;;23.00;33.20;;;;;;6273665;27;80384;-63
2020/12/05 01:07:04;;;;;;;11.23;7.28;;;23.00;33.20;;;;;;6276935;27;80567;-62
2020/12/05 01:10:04;;;;;;;11.40;7.25;;;23.00;33.00;;;;;;6267179;27;80199;-63
2020/12/05 01:13:05;;;;;;;10.52;7.20;;;23.00;32.80;;;;;;6271632;27;80755;-63
2020/12/05 01:16:07;;;;;;;10.38;6.95;;;22.90;33.00;;;;;;6276714;27;81510;-61
2020/12/05 01:19:07;;;;;;;11.02;6.90;;;22.90;33.10;;;;;;6272141;27;80833;-62
2020/12/05 01:22:08;;;;;;;12.48;6.68;;;22.90;33.20;;;;;;6272627;27;80177;-61
2020/12/05 01:25:09;;;;;;;10.75;6.35;;;22.90;33.30;;;;;;6274488;27;80336;-61
2020/12/05 01:28:09;;;;;;;13.50;6.93;;;22.90;33.50;;;;;;6272452;27;81022;-61
2020/12/05 01:31:10;;;;;;;12.85;6.55;;;22.90;32.90;;;;;;6269014;27;83560;-62
2020/12/05 01:34:11;;;;;;;11.90;6.78;;;22.90;33.10;;;;;;6263397;27;80753;-62
2020/12/05 01:37:11;;;;;;;10.57;6.75;;;22.90;33.40;;;;;;6274622;27;81971;-63
2020/12/05 01:40:12;;;;;;;9.40;5.75;;;22.90;32.80;;;;;;6271295;27;84143;-62
2020/12/05 01:43:12;;;;;;;9.98;6.15;;;22.90;32.70;;;;;;6279913;27;80678;-62
2020/12/05 01:46:13;;;;;;;9.60;6.75;;;22.90;32.90;;;;;;6271066;27;81636;-61
2020/12/05 01:49:13;;;;;;;10.60;6.40;;;22.90;32.70;;;;;;6277138;27;82858;-62
2020/12/05 01:52:14;;;;;;;9.48;6.05;;;22.90;32.90;;;;;;6278236;27;81673;-62
2020/12/05 01:55:14;;;;;;;9.95;6.40;;;22.90;32.70;;;;;;6276115;27;80369;-62
2020/12/05 01:58:15;;;;;;;9.52;6.30;;;22.90;32.90;;;;;;6277282;27;80497;-63
2020/12/05 02:01:16;;;;;;;8.85;6.20;;;22.90;32.70;;;;;;6273807;27;80415;-62
2020/12/05 02:04:16;;;;;;;10.70;6.70;;;22.90;32.60;;;;;;6275574;27;81060;-61
2020/12/05 02:07:17;;;;;;;8.45;6.05;;;22.90;32.70;;;;;;6274472;27;80695;-60
2020/12/05 02:10:18;;;;;;;10.10;6.28;;;22.90;32.60;;;;;;6272277;27;80238;-62
2020/12/05 02:13:18;;;;;;;10.52;6.30;;;22.90;32.80;;;;;;6272082;27;80287;-63
2020/12/05 02:16:19;;;;;;;10.25;6.47;;;22.90;32.70;;;;;;6264690;27;80977;-62
2020/12/05 02:19:19;;;;;;;13.35;6.05;;;22.90;33.10;;;;;;6273394;27;81075;-62
2020/12/05 02:22:20;;;;;;;9.88;6.22;;;22.90;33.20;;;;;;6276178;27;82603;-62
2020/12/05 02:25:20;;;;;;;9.40;6.45;;;23.00;33.50;;;;;;6276138;27;80559;-63
2020/12/05 02:28:21;;;;;;;9.07;5.82;;;22.90;33.40;;;;;;6274518;27;81157;-65
2020/12/05 02:31:21;;;;;;;9.73;6.68;;;23.00;33.60;;;;;;6265390;27;81031;-63
2020/12/05 02:34:22;;;;;;;9.43;6.25;;;22.90;33.60;;;;;;6278223;27;80818;-63
2020/12/05 02:37:23;;;;;;;11.98;6.47;;;23.00;33.70;;;;;;6277294;27;83115;-63
2020/12/05 02:40:23;;;;;;;9.43;6.13;;;23.00;33.70;;;;;;6269463;27;80459;-63
2020/12/05 02:43:24;;;;;;;9.82;6.25;;;22.90;33.60;;;;;;6260435;27;80771;-63
2020/12/05 02:46:24;;;;;;;9.02;6.10;;;22.90;33.80;;;;;;6278448;27;80621;-62
2020/12/05 02:49:25;;;;;;;10.60;6.05;;;23.00;33.40;;;;;;6275451;27;83198;-62
2020/12/05 02:52:25;;;;;;;8.57;5.25;;;22.90;33.50;;;;;;6263463;27;81592;-63
2020/12/05 02:55:26;;;;;;;8.70;6.00;;;22.90;33.60;;;;;;6270087;27;80768;-61
2020/12/05 02:58:27;;;;;;;8.45;5.57;;;22.90;33.70;;;;;;6277242;27;80770;-62
2020/12/05 03:01:27;;;;;;;8.48;6.07;;;22.90;33.80;;;;;;6276153;27;81434;-62
2020/12/05 03:04:28;;;;;;;7.88;5.28;;;22.90;33.70;;;;;;6273471;27;80984;-64
2020/12/05 03:07:28;;;;;;;12.60;6.10;;;22.90;33.30;;;;;;6270516;27;80680;-63
2020/12/05 03:10:29;;;;;;;10.48;6.60;;;22.90;33.20;;;;;;6277042;27;83420;-63
2020/12/05 03:13:29;;;;;;;8.98;6.10;;;22.90;33.30;;;;;;6272476;27;81567;-63
2020/12/05 03:16:30;;;;;;;10.25;6.13;;;22.90;33.30;;;;;;6270631;27;81773;-63
2020/12/05 03:19:31;;;;;;;7.95;5.45;;;22.90;33.10;;;;;;6275770;27;80824;-63
2020/12/05 03:22:31;;;;;;;9.07;5.55;;;22.90;33.00;;;;;;6265733;27;84222;-64
2020/12/05 03:25:32;;;;;;;9.05;6.07;;;22.90;33.10;;;;;;6274983;27;80665;-63
2020/12/05 03:28:32;;;;;;;9.00;6.10;;;22.90;32.90;;;;;;6268972;27;80886;-63
2020/12/05 03:34:33;;;;;;;9.50;5.85;;;22.90;33.00;;;;;;6275196;27;80811;-63
2020/12/05 03:37:35;;;;;;;8.80;6.03;;;22.80;32.90;;;;;;6272751;27;80857;-63
2020/12/05 03:40:37;;;;;;;9.82;6.07;;;22.90;32.90;;;;;;6277650;27;80498;-63
2020/12/05 03:43:38;;;;;;;8.55;5.53;;;22.80;33.00;;;;;;6275188;27;81311;-63
2020/12/05 03:46:38;;;;;;;9.07;6.35;;;22.90;33.00;;;;;;6278381;27;80870;-63
2020/12/05 03:49:39;;;;;;;8.57;6.15;;;22.90;33.00;;;;;;6273975;27;81099;-62
2020/12/05 03:52:39;;;;;;;7.40;5.47;;;22.80;32.70;;;;;;6261858;27;80764;-62
2020/12/05 03:55:40;;;;;;;8.35;5.78;;;22.80;32.80;;;;;;6273639;27;80500;-64
2020/12/05 03:58:40;;;;;;;10.23;6.97;;;22.90;32.70;;;;;;6269646;27;80405;-62
2020/12/05 04:01:41;;;;;;;9.05;5.72;;;22.80;32.90;;;;;;6276974;27;81814;-61
2020/12/05 04:04:42;;;;;;;10.52;6.35;;;22.80;32.80;;;;;;6275656;27;80771;-61
2020/12/05 04:07:43;;;;;;;9.27;5.72;;;22.80;32.90;;;;;;6272780;27;80767;-61
2020/12/05 04:10:43;;;;;;;8.45;5.40;;;22.80;32.80;;;;;;6274967;27;80943;-61
2020/12/05 04:13:44;;;;;;;10.18;5.90;;;22.80;33.10;;;;;;6264346;27;82134;-62
2020/12/05 04:16:44;;;;;;;8.40;5.70;;;22.80;33.30;;;;;;6271282;27;80881;-61
2020/12/05 04:19:45;;;;;;;7.88;5.68;;;22.80;33.50;;;;;;6272892;27;83821;-61
2020/12/05 04:22:45;;;;;;;7.72;5.18;;;22.80;33.60;;;;;;6277546;27;80975;-61
2020/12/05 04:25:46;;;;;;;9.45;6.10;;;22.80;33.50;;;;;;6270453;27;80944;-61
2020/12/05 04:28:47;;;;;;;7.85;5.45;;;22.90;33.70;;;;;;6270302;27;80989;-61
2020/12/05 04:31:47;;;;;;;10.07;5.93;;;22.90;33.70;;;;;;6262065;27;81409;-61
2020/12/05 04:34:48;;;;;;;7.85;5.50;;;22.80;33.60;;;;;;6274088;27;81488;-62
2020/12/05 04:37:49;;;;;;;9.10;5.68;;;22.80;33.70;;;;;;6272230;27;82276;-61
2020/12/05 04:40:49;;;;;;;8.43;5.72;;;22.80;33.60;;;;;;6264959;27;80191;-61
2020/12/05 04:43:50;;;;;;;9.38;5.30;;;22.90;33.60;;;;;;6269876;27;84630;-56
2020/12/05 04:46:51;;;;;;;7.50;4.70;;;22.80;33.60;;;;;;6264320;27;81004;-60
2020/12/05 04:49:51;;;;;;;9.07;5.88;;;22.80;33.60;;;;;;6263179;27;81709;-61
2020/12/05 04:52:52;;;;;;;10.05;5.57;;;22.80;33.70;;;;;;6273818;27;80558;-61
2020/12/05 04:55:52;;;;;;;10.98;6.45;;;22.90;33.70;;;;;;6273396;27;81043;-62
2020/12/05 04:58:53;;;;;;;9.10;5.95;;;22.80;34.40;;;;;;6268985;27;81689;-62
2020/12/05 05:01:53;;;;;;;7.57;5.78;;;22.80;33.90;;;;;;6271121;27;80673;-62
2020/12/05 05:04:54;;;;;;;9.43;5.82;;;22.80;33.80;;;;;;6273228;27;81123;-62
2020/12/05 05:07:55;;;;;;;8.30;5.65;;;22.80;33.70;;;;;;6269078;27;84905;-62
2020/12/05 05:10:55;;;;;;;7.93;5.68;;;22.80;33.60;;;;;;6273697;27;80857;-62
2020/12/05 05:14:14;;;;;;;7.88;5.20;;;22.80;33.60;;;;;;6264542;27;80680;-62
2020/12/05 05:17:15;;;;;;;9.95;5.85;;;22.80;34.20;;;;;;6261796;27;81929;-61
2020/12/05 05:20:15;;;;;;;8.48;5.90;;;22.90;34.80;;;;;;6271029;27;80649;-61
2020/12/05 05:23:16;;;;;;;9.63;5.53;;;22.90;34.80;;;;;;6266886;27;81056;-59
2020/12/05 05:26:16;;;;;;;8.95;4.97;;;22.90;35.30;;;;;;6271809;27;80794;-58
2020/12/05 05:29:17;;;;;;;12.80;5.53;;;22.90;35.40;;;;;;6271718;27;81868;-59
2020/12/05 05:32:21;;;;;;;8.10;5.13;;;23.00;36.00;;;;;;6271819;27;81300;-57
2020/12/05 05:35:22;;;;;;;7.75;5.10;;;23.00;36.30;;;;;;6270301;27;81528;-56
2020/12/05 05:38:22;;;;;;;6.70;4.68;;;23.10;36.90;;;;;;6263896;27;80471;-60
2020/12/05 05:41:23;;;;;;;7.03;4.95;;;23.10;36.30;;;;;;6273573;27;81455;-60
2020/12/05 05:44:24;;;;;;;8.43;4.80;;;23.10;36.50;;;;;;6271186;27;80333;-60
2020/12/05 05:47:24;;;;;;;10.50;5.00;;;23.10;36.80;;;;;;6268155;27;80236;-60
2020/12/05 05:50:25;;;;;;;9.00;5.18;;;23.10;36.80;;;;;;6267088;27;90666;-60
2020/12/05 05:53:25;;;;;;;10.00;5.10;;;23.10;36.90;;;;;;6269668;27;83654;-60
2020/12/05 05:56:26;;;;;;;9.82;5.57;;;23.10;37.00;;;;;;6278846;27;80719;-61
2020/12/05 05:59:27;;;;;;;11.40;5.70;;;23.10;36.80;;;;;;6278365;27;80456;-61
2020/12/05 06:02:27;;;;;;;11.80;6.05;;;23.10;37.00;;;;;;6279669;27;80856;-61
2020/12/05 06:05:28;;;;;;;12.90;5.80;;;23.10;37.20;;;;;;6269189;27;80734;-60
2020/12/05 06:08:29;;;;;;;11.70;5.72;;;23.20;37.80;;;;;;6277914;27;80737;-60
2020/12/05 06:11:29;;;;;;;9.63;5.30;;;23.20;37.90;;;;;;6272232;27;81461;-59
2020/12/05 06:14:30;;;;;;;18.95;6.40;;;23.20;38.00;;;;;;6270806;27;83068;-60
2020/12/05 06:17:30;;;;;;;9.80;5.53;;;23.20;38.30;;;;;;6263607;27;80998;-61
2020/12/05 06:20:31;;;;;;;10.50;5.78;;;23.20;38.60;;;;;;6269240;27;80524;-60
2020/12/05 06:23:32;;;;;;;13.20;6.00;;;23.20;38.70;;;;;;6272943;27;80655;-60
2020/12/05 06:26:32;;;;;;;15.00;6.53;;;23.30;38.80;;;;;;6270644;27;81066;-60
2020/12/05 06:29:33;;;;;;;9.57;5.40;;;23.30;38.80;;;;;;6277987;27;80411;-59
2020/12/05 06:32:33;;;;;;;12.48;5.75;;;23.30;38.70;;;;;;6252476;27;83268;-60
2020/12/05 06:35:34;;;;;;;10.73;5.95;;;23.20;38.70;;;;;;6274316;27;80492;-59
2020/12/05 06:38:35;;;;;;;10.57;5.47;;;23.30;38.80;;;;;;6267820;27;81049;-60
2020/12/05 06:41:35;;;;;;;12.13;6.13;;;23.30;38.70;;;;;;6274394;27;81987;-60
2020/12/05 06:44:36;;;;;;;12.77;6.03;;;23.20;38.70;;;;;;6275163;27;81908;-60
2020/12/05 06:47:37;;;;;;;11.32;6.25;;;23.20;38.60;;;;;;6275620;27;81364;-59
2020/12/05 06:50:37;;;;;;;10.48;6.53;;;23.30;38.40;;;;;;6275025;27;80693;-60
2020/12/05 06:53:38;;;;;;;9.73;5.78;;;23.30;38.30;;;;;;6268035;27;80593;-60
2020/12/05 06:56:38;;;;;;;8.23;5.90;;;23.30;38.30;;;;;;6277824;27;81146;-60
2020/12/05 06:59:39;;;;;;;9.32;6.05;;;23.20;38.40;;;;;;6263105;27;80663;-59
2020/12/05 07:02:40;;;;;;;14.27;6.35;;;23.30;38.30;;;;;;6277560;27;80821;-53
2020/12/05 07:05:40;;;;;;;20.98;6.63;;;23.30;38.10;;;;;;6262009;27;80647;-49
2020/12/05 07:08:41;;;;;;;12.48;6.57;;;23.30;38.20;;;;;;6265930;27;80321;-53
2020/12/05 07:11:42;;;;;;;15.15;6.38;;;23.30;39.10;;;;;;6268960;27;80929;-50
2020/12/05 07:14:43;;;;;;;12.75;6.72;;;23.30;38.80;;;;;;6268545;27;80788;-55
2020/12/05 07:17:44;;;;;;;20.52;7.63;;;23.30;38.90;;;;;;6267636;27;81418;-53
2020/12/05 07:20:45;;;;;;;13.90;6.47;;;23.30;39.10;;;;;;6272945;27;81644;-51
2020/12/05 07:23:45;;;;;;;14.32;6.80;;;23.30;39.20;;;;;;6264225;27;80653;-51
2020/12/05 07:26:46;;;;;;;18.63;7.95;;;23.30;39.20;;;;;;6271299;27;83287;-51
2020/12/05 07:29:46;;;;;;;18.95;7.65;;;23.30;39.40;;;;;;6273227;27;80849;-52
2020/12/05 07:32:47;;;;;;;19.88;6.47;;;23.40;39.40;;;;;;6271465;27;80609;-52
2020/12/05 07:35:47;;;;;;;20.77;6.97;;;23.40;39.70;;;;;;6272012;27;80913;-51
2020/12/05 07:38:48;;;;;;;16.60;6.95;;;23.40;40.10;;;;;;6274389;27;80691;-50
2020/12/05 07:41:48;;;;;;;14.20;6.55;;;23.30;39.30;;;;;;6268681;27;80453;-51
2020/12/05 07:44:49;;;;;;;16.38;6.70;;;23.40;39.50;;;;;;6267218;27;80659;-55
2020/12/05 07:47:50;;;;;;;25.10;6.85;;;23.40;39.80;;;;;;6271176;27;80738;-50
2020/12/05 07:50:50;;;;;;;15.05;6.78;;;23.40;39.80;;;;;;6268475;27;80441;-51
2020/12/05 07:53:51;;;;;;;22.20;7.03;;;23.40;40.40;;;;;;6270855;27;83139;-51
2020/12/05 07:56:51;;;;;;;18.38;6.65;;;23.40;40.60;;;;;;6273225;27;80681;-54
2020/12/05 07:59:52;;;;;;;22.70;7.38;;;23.50;40.50;;;;;;6277757;27;80521;-53
2020/12/05 08:02:52;;;;;;;14.38;6.55;;;23.50;40.60;;;;;;6274526;27;80792;-54
2020/12/05 08:05:53;;;;;;;19.77;6.85;;;23.60;40.90;;;;;;6271110;27;81064;-52
2020/12/05 08:08:54;;;;;;;14.10;7.45;;;23.60;40.90;;;;;;6274338;27;80424;-50
2020/12/05 08:11:54;;;;;;;15.95;6.07;;;23.50;41.10;;;;;;6269835;27;80642;-50
2020/12/05 08:14:55;;;;;;;13.75;7.07;;;23.60;41.10;;;;;;6269692;27;80680;-50
2020/12/05 08:17:55;;;;;;;21.67;6.65;;;23.60;41.30;;;;;;6264445;27;80683;-51
2020/12/05 08:20:56;;;;;;;18.48;6.25;;;23.60;41.30;;;;;;6270408;27;80719;-57
2020/12/05 08:23:57;;;;;;;10.82;6.15;;;23.60;41.50;;;;;;6271179;27;80419;-60
2020/12/05 08:26:57;;;;;;;12.25;6.30;;;23.60;41.60;;;;;;6266970;27;80720;-60
2020/12/05 08:29:58;;;;;;;20.65;6.47;;;23.70;41.90;;;;;;6270997;27;82093;-56
2020/12/05 08:32:58;;;;;;;12.95;6.63;;;23.70;42.10;;;;;;6274444;27;80746;-59
2020/12/05 08:35:59;;;;;;;14.82;5.90;;;23.70;41.80;;;;;;6272419;27;81336;-60
2020/12/05 08:38:59;;;;;;;14.40;6.60;;;23.80;42.30;;;;;;6272092;27;80386;-59
2020/12/05 08:42:00;;;;;;;13.50;6.75;;;23.70;42.00;;;;;;6264577;27;80885;-59
2020/12/05 08:45:01;;;;;;;13.07;6.45;;;23.80;42.30;;;;;;6273981;27;80684;-59
2020/12/05 08:48:01;;;;;;;12.57;6.20;;;23.80;42.40;;;;;;6271501;27;81018;-59
2020/12/05 08:51:02;;;;;;;17.45;6.72;;;23.80;42.30;;;;;;6275643;27;81191;-58
2020/12/05 08:54:02;;;;;;;17.48;7.43;;;23.70;42.30;;;;;;6274664;27;80719;-60
2020/12/05 08:57:03;;;;;;;14.25;6.22;;;23.70;42.00;;;;;;6275875;27;82645;-59
2020/12/05 09:00:03;;;;;;;12.60;6.65;;;23.70;42.60;;;;;;6272691;27;80843;-54
2020/12/05 09:03:04;;;;;;;12.30;6.03;;;23.70;42.40;;;;;;6268614;27;80436;-53
2020/12/05 09:06:04;;;;;;;14.45;6.30;;;23.70;42.50;;;;;;6264223;27;80531;-48
2020/12/05 09:09:05;;;;;;;13.45;6.93;;;23.70;42.10;;;;;;6274221;27;81096;-51
2020/12/05 09:12:06;;;;;;;14.02;5.57;;;23.70;41.90;;;;;;6270386;27;82025;-51
2020/12/05 09:15:06;;;;;;;15.70;6.13;;;23.80;41.60;;;;;;6270760;27;80897;-54
2020/12/05 09:18:12;;;;;;;10.27;5.88;;;23.70;41.50;;;;;;6270777;27;80634;-55
2020/12/05 09:21:13;;;;;;;;;;;23.70;41.30;;;;;;6268443;27;80754;-54
2020/12/05 09:24:13;;;;;;;14.00;5.97;;;23.80;41.30;;;;;;6269792;27;80265;-54
2020/12/05 09:27:38;;;;;;;9.63;5.88;;;23.70;41.20;;;;;;6272693;27;80707;-56
2020/12/05 13:25:12;;;;;;;27.20;11.97;;;23.90;41.80;;;;;;6171183;28;103141;-64
2020/12/05 13:28:13;;;;;;;28.60;11.80;;;23.90;41.70;;;;;;6186366;28;84114;-65
2020/12/05 13:31:13;;;;;;;24.67;10.60;;;23.90;41.70;;;;;;6193468;27;83720;-65
2020/12/05 13:34:14;;;;;;;23.02;10.57;;;24.00;41.60;;;;;;6190800;28;83344;-67
2020/12/05 13:37:14;;;;;;;23.90;11.10;;;24.00;41.50;;;;;;6189969;28;84379;-65
2020/12/05 13:40:15;;;;;;;27.08;11.05;;;24.00;41.40;;;;;;6185289;28;83163;-66
2020/12/05 13:43:15;;;;;;;21.10;9.57;;;23.90;41.40;;;;;;6185911;28;84391;-66
2020/12/05 13:46:16;;;;;;;20.60;9.93;;;23.90;41.10;;;;;;6186525;28;85559;-65
2020/12/05 13:49:17;;;;;;;20.33;9.15;;;23.90;41.10;;;;;;6193551;27;81331;-65
2020/12/05 13:52:17;;;;;;;21.02;9.98;;;23.90;40.80;;;;;;6182732;28;81403;-65
2020/12/05 13:55:18;;;;;;;19.98;9.68;;;23.90;40.70;;;;;;6182784;28;83271;-65
2020/12/05 13:58:19;;;;;;;19.48;8.85;;;23.80;40.50;;;;;;6180744;28;81910;-62
2020/12/05 14:01:19;;;;;;;20.27;8.95;;;23.80;40.30;;;;;;6192860;27;81205;-61
2020/12/05 14:04:20;;;;;;;22.08;8.82;;;23.80;40.60;;;;;;6193646;28;80833;-62
2020/12/05 14:07:21;;;;;;;16.25;8.25;;;23.90;40.90;;;;;;6188493;28;90225;-61
2020/12/05 14:10:21;;;;;;;21.92;8.48;;;23.90;40.90;;;;;;6176191;28;81088;-62
2020/12/05 14:13:22;;;;;;;18.58;8.48;;;23.90;41.40;;;;;;6182260;28;80728;-62
2020/12/05 14:16:23;;;;;;;19.70;7.82;;;23.90;41.50;;;;;;6176348;28;83068;-62
2020/12/05 14:19:23;;;;;;;16.10;8.05;;;23.90;41.70;;;;;;6179351;28;81497;-62
2020/12/05 14:22:24;;;;;;;19.70;8.30;;;23.90;41.80;;;;;;6172257;28;80828;-54
2020/12/05 14:25:24;;;;;;;17.17;8.00;;;23.90;43.00;;;;;;6180169;27;80589;-60
2020/12/05 14:28:26;;;;;;;16.95;7.80;;;24.00;43.00;;;;;;6177829;28;81858;-59
2020/12/05 14:31:26;;;;;;;17.88;8.18;;;24.00;44.10;;;;;;6179560;27;81389;-61
2020/12/05 14:34:27;;;;;;;17.95;8.55;;;24.00;45.00;;;;;;6179874;28;81142;-59
2020/12/05 14:37:27;;;;;;;14.45;8.02;;;24.00;44.30;;;;;;6178014;27;80808;-62
2020/12/05 14:40:28;;;;;;;18.90;9.55;;;24.00;46.90;;;;;;6177003;28;80636;-60
2020/12/05 14:43:28;;;;;;;19.73;7.97;;;24.00;46.50;;;;;;6180587;27;81868;-58
2020/12/05 14:46:29;;;;;;;15.55;8.02;;;24.00;47.40;;;;;;6178798;28;80529;-57
2020/12/05 14:49:30;;;;;;;17.60;8.45;;;24.00;48.00;;;;;;6181558;28;83041;-57
2020/12/05 14:52:31;;;;;;;20.23;8.15;;;24.00;48.00;;;;;;6173955;28;80699;-57
2020/12/05 14:55:33;;;;;;;16.80;7.90;;;24.00;47.30;;;;;;6176947;28;83218;-59
2020/12/05 14:58:34;;;;;;;12.73;7.10;;;23.90;47.20;;;;;;6168858;28;80707;-56
2020/12/05 15:01:34;;;;;;;13.65;7.78;;;23.90;46.60;;;;;;6178926;28;80952;-55
2020/12/05 15:04:35;;;;;;;15.68;7.25;;;23.90;46.20;;;;;;6180641;28;82278;-59
2020/12/05 15:07:35;;;;;;;14.13;7.00;;;24.00;46.20;;;;;;6179454;27;81887;-59
2020/12/05 15:10:36;;;;;;;10.63;6.85;;;24.00;45.90;;;;;;6178974;28;80472;-56
2020/12/05 15:13:37;;;;;;;14.88;7.10;;;24.00;45.60;;;;;;6175145;27;80819;-57
2020/12/05 15:16:38;;;;;;;16.13;6.95;;;24.00;45.30;;;;;;6175577;28;81183;-57
2020/12/05 15:19:38;;;;;;;13.88;6.53;;;23.90;44.80;;;;;;6177143;27;80705;-57
2020/12/05 15:22:39;;;;;;;13.52;7.00;;;24.00;44.70;;;;;;6172611;28;80481;-57
2020/12/05 15:25:39;;;;;;;14.57;6.97;;;23.90;44.90;;;;;;6172684;28;80738;-57
2020/12/05 15:28:40;;;;;;;10.77;6.60;;;23.90;43.90;;;;;;6175227;28;80777;-56
2020/12/05 15:31:40;;;;;;;15.55;6.70;;;24.00;43.50;;;;;;6177719;28;80757;-48
2020/12/05 15:34:41;;;;;;;14.35;7.05;;;23.90;43.30;;;;;;6177184;28;81051;-56
2020/12/05 15:37:41;;;;;;;14.70;7.10;;;23.90;43.50;;;;;;6176222;28;80506;-56
2020/12/05 15:40:42;;;;;;;14.48;6.47;;;23.90;43.10;;;;;;6169467;28;80701;-64
2020/12/05 15:43:42;;;;;;;13.35;6.45;;;23.90;43.20;;;;;;6177892;27;80264;-64
2020/12/05 15:46:43;;;;;;;19.17;7.43;;;23.90;43.40;;;;;;6167369;28;81449;-63
2020/12/05 15:49:43;;;;;;;21.42;7.72;;;23.90;43.40;;;;;;6166262;28;80772;-63
2020/12/05 15:52:44;;;;;;;21.33;8.48;;;23.90;43.20;;;;;;6174911;28;81237;-65
2020/12/05 15:55:44;;;;;;;22.08;7.15;;;23.90;43.10;;;;;;6169651;28;84218;-62
2020/12/05 15:58:45;;;;;;;19.42;7.53;;;24.00;43.10;;;;;;6165643;28;80406;-62
2020/12/05 16:01:45;;;;;;;30.88;9.07;;;24.00;43.40;;;;;;6167823;28;87092;-63
2020/12/05 16:04:46;;;;;;;17.45;8.30;;;24.00;42.90;;;;;;6178215;28;80768;-63
2020/12/05 16:07:47;;;;;;;25.08;8.63;;;24.00;43.00;;;;;;6177008;27;80908;-61
2020/12/05 16:10:47;;;;;;;22.30;9.13;;;24.00;43.20;;;;;;6174741;28;83209;-61
2020/12/05 16:13:48;;;;;;;16.83;8.60;;;24.00;43.00;;;;;;6167569;28;80938;-61
2020/12/05 16:16:48;;;;;;;25.75;8.63;;;23.90;42.90;;;;;;6173703;28;82282;-60
2020/12/05 16:19:52;;;;;;;26.73;10.07;;;23.90;42.90;;;;;;6172972;28;80452;-61
2020/12/05 16:22:53;;;;;;;21.15;8.98;;;23.90;42.80;;;;;;6171285;28;83264;-60
2020/12/05 16:25:54;;;;;;;18.05;9.52;;;23.90;42.80;;;;;;6166387;27;82867;-61
2020/12/05 16:28:55;;;;;;;21.13;9.27;;;23.90;42.60;;;;;;6170405;28;80833;-60
2020/12/05 16:31:56;;;;;;;19.08;9.73;;;24.00;42.60;;;;;;6175057;27;81801;-61
2020/12/05 16:34:56;;;;;;;24.33;10.65;;;24.00;42.70;;;;;;6168136;28;81645;-59
2020/12/05 16:37:57;;;;;;;32.38;11.70;;;24.00;42.60;;;;;;6158642;28;83328;-63
2020/12/05 16:40:57;;;;;;;31.70;11.65;;;23.90;42.10;;;;;;6171806;27;83409;-63
2020/12/05 16:43:58;;;;;;;40.25;11.43;;;23.90;42.40;;;;;;6160449;28;83170;-63
2020/12/05 16:46:59;;;;;;;28.17;11.48;;;23.90;42.40;;;;;;6162012;27;83507;-62
2020/12/05 16:49:59;;;;;;;33.70;12.13;;;23.90;42.30;;;;;;6172054;28;83485;-63
2020/12/05 16:53:00;;;;;;;35.88;11.40;;;23.90;42.70;;;;;;6162731;27;84618;-63
2020/12/05 16:56:00;;;;;;;30.77;13.00;;;23.90;42.40;;;;;;6162060;28;83729;-68
2020/12/05 16:59:01;;;;;;;34.50;12.32;;;23.90;42.30;;;;;;6161381;28;83688;-74
2020/12/05 17:02:02;;;;;;;28.48;12.90;;;23.90;42.00;;;;;;6169925;28;83522;-75
2020/12/05 17:05:02;;;;;;;27.25;13.73;;;23.90;42.20;;;;;;6164831;28;83717;-74
2020/12/05 17:08:03;;;;;;;30.20;12.95;;;23.90;42.30;;;;;;6170461;27;84203;-73
2020/12/05 17:11:03;;;;;;;29.42;13.70;;;23.90;42.00;;;;;;6171551;28;84293;-75
2020/12/05 17:14:04;;;;;;;25.70;12.85;;;23.90;42.20;;;;;;6173569;28;83845;-72
2020/12/05 17:17:04;;;;;;;28.73;13.75;;;23.90;42.20;;;;;;6170958;28;83229;-74
2020/12/05 17:20:05;;;;;;;28.60;13.18;;;23.90;42.20;;;;;;6170083;27;87337;-69
2020/12/05 17:23:06;;;;;;;25.95;12.77;;;23.90;42.30;;;;;;6169188;28;87378;-70
2020/12/05 17:26:06;;;;;;;25.40;12.98;;;23.90;42.30;;;;;;6169151;28;83127;-72
2020/12/05 17:29:07;;;;;;;30.10;12.35;;;23.90;42.50;;;;;;6168465;28;85705;-73
2020/12/05 17:32:07;;;;;;;33.22;13.63;;;23.90;42.40;;;;;;6166957;27;84529;-71
2020/12/05 17:35:08;;;;;;;33.22;13.82;;;23.90;42.30;;;;;;6146420;28;84147;-74
2020/12/05 17:38:08;;;;;;;33.47;14.30;;;23.90;42.20;;;;;;6142126;28;83215;-74
2020/12/05 17:41:10;;;;;;;25.70;13.80;;;23.90;42.10;;;;;;6159621;28;86666;-76
2020/12/05 17:44:11;;;;;;;24.80;13.80;;;23.90;42.10;;;;;;6160201;28;83460;-72
2020/12/05 17:47:12;;;;;;;26.95;14.65;;;23.90;42.20;;;;;;6172295;27;83136;-73
2020/12/05 17:50:13;;;;;;;29.85;14.88;;;23.90;42.10;;;;;;6174194;28;83878;-74
2020/12/05 17:53:15;;;;;;;27.58;14.13;;;23.90;42.10;;;;;;6170940;28;83309;-73
2020/12/05 17:56:15;;;;;;;25.90;14.40;;;23.90;42.10;;;;;;6176667;28;83076;-72
2020/12/05 17:59:16;;;;;;;29.67;15.38;;;23.90;42.10;;;;;;6172844;27;85919;-71
2020/12/05 18:02:16;;;;;;;26.38;14.93;;;23.90;42.40;;;;;;6175616;28;83354;-70
2020/12/05 18:05:17;;;;;;;27.83;15.63;;;23.90;42.20;;;;;;6172622;27;85541;-68
2020/12/05 18:08:18;;;;;;;31.02;15.20;;;23.90;42.00;;;;;;6146920;28;83381;-70
2020/12/05 18:11:18;;;;;;;30.17;16.10;;;24.00;42.30;;;;;;6150173;27;84069;-69
2020/12/05 18:14:19;;;;;;;31.70;17.23;;;24.00;42.00;;;;;;6152009;28;83500;-69
2020/12/05 18:17:19;;;;;;;29.38;17.02;;;24.00;42.00;;;;;;6150874;28;84379;-72
2020/12/05 18:20:20;;;;;;;33.58;17.67;;;23.90;42.10;;;;;;6163309;28;83254;-69
2020/12/05 18:23:21;;;;;;;32.20;17.40;;;23.90;42.00;;;;;;6150211;27;89299;-70
2020/12/05 18:26:21;;;;;;;33.45;18.05;;;23.90;41.90;;;;;;6167399;28;83331;-69
2020/12/05 18:29:22;;;;;;;30.23;18.25;;;23.90;42.10;;;;;;6166656;28;83646;-72
2020/12/05 18:32:22;;;;;;;30.25;17.55;;;23.90;41.60;;;;;;6162416;28;83994;-69
2020/12/05 18:35:23;;;;;;;29.63;17.80;;;23.90;41.50;;;;;;6169614;27;84512;-68
2020/12/05 18:38:23;;;;;;;33.88;19.08;;;23.90;41.40;;;;;;6164489;28;83704;-70
2020/12/05 18:41:24;;;;;;;31.88;18.65;;;23.90;41.20;;;;;;6172124;27;83547;-71
2020/12/05 18:44:27;;;;;;;35.92;19.73;;;23.80;41.20;;;;;;6167627;28;83735;-71
2020/12/05 18:47:28;;;;;;;34.92;19.20;;;23.90;41.10;;;;;;6161950;28;84512;-66
2020/12/05 18:50:28;;;;;;;38.63;19.38;;;23.90;41.00;;;;;;6162772;28;83306;-69
2020/12/05 18:53:29;;;;;;;32.70;19.27;;;23.90;40.70;;;;;;6168866;27;82982;-69
2020/12/05 18:56:29;;;;;;;31.02;18.92;;;23.90;40.70;;;;;;6167865;28;86668;-71
2020/12/05 18:59:30;;;;;;;34.65;18.55;;;23.90;40.60;;;;;;6163763;28;84226;-71
2020/12/05 19:02:31;;;;;;;32.08;19.77;;;23.90;40.90;;;;;;6171906;28;84862;-71
2020/12/05 19:05:32;;;;;;;31.83;18.63;;;23.90;41.10;;;;;;6175145;27;84696;-70
2020/12/05 19:08:32;;;;;;;31.77;18.80;;;24.00;41.40;;;;;;6173576;28;84005;-69
2020/12/05 19:11:33;;;;;;;40.75;19.73;;;23.90;41.50;;;;;;6175159;28;85600;-70
2020/12/05 19:14:34;;;;;;;32.13;19.25;;;23.90;41.80;;;;;;6173483;28;83560;-73
2020/12/05 19:17:34;;;;;;;38.47;20.23;;;23.90;41.90;;;;;;6170307;28;84911;-74
2020/12/05 19:20:35;;;;;;;41.35;20.42;;;23.90;41.90;;;;;;6173827;27;85689;-70
2020/12/05 19:23:36;;;;;;;36.80;20.05;;;23.90;41.90;;;;;;6167377;28;83615;-68
2020/12/05 19:26:36;;;;;;;36.55;20.17;;;23.90;41.80;;;;;;6160072;28;83417;-73